createdAt,value
2023-05-24T00:01:57.587Z,100.00
2023-05-24T00:04:30.461Z,100.00
2023-05-24T00:06:58.242Z,99.47
2023-05-24T00:09:24.970Z,98.51
2023-05-24T00:11:51.628Z,98.57
2023-05-24T00:14:18.473Z,100.00
2023-05-24T00:16:46.801Z,100.00
2023-05-24T00:19:18.328Z,99.93
2023-05-24T00:21:46.066Z,100.00
2023-05-24T00:24:13.113Z,100.00
2023-05-24T00:26:39.950Z,100.00
2023-05-24T00:29:06.942Z,100.00
2023-05-24T00:31:33.821Z,100.00
2023-05-24T00:34:00.587Z,100.00
2023-05-24T00:36:27.243Z,100.00
2023-05-24T00:38:54.073Z,100.00
2023-05-24T00:41:20.800Z,100.00
2023-05-24T00:43:47.422Z,100.00
2023-05-24T00:46:26.036Z,100.00
2023-05-24T00:48:53.078Z,100.00
2023-05-24T00:51:20.006Z,100.00
2023-05-24T00:53:48.888Z,100.00
2023-05-24T00:56:16.868Z,100.00
2023-05-24T00:58:44.301Z,100.00
2023-05-24T01:01:11.009Z,100.00
2023-05-24T01:03:37.999Z,100.00
2023-05-24T01:06:07.991Z,100.00
2023-05-24T01:08:42.531Z,100.00
2023-05-24T01:11:42.001Z,100.00
2023-05-24T01:14:28.272Z,100.00
2023-05-24T01:17:03.814Z,100.00
2023-05-24T01:19:51.270Z,100.00
2023-05-24T01:22:39.954Z,100.00
2023-05-24T01:25:34.448Z,100.00
2023-05-24T01:28:04.350Z,100.00
2023-05-24T01:30:31.226Z,100.00
2023-05-24T01:32:58.136Z,100.00
2023-05-24T01:35:25.103Z,100.00
2023-05-24T01:37:51.775Z,100.00
2023-05-24T01:40:18.772Z,100.00
2023-05-24T01:43:04.023Z,100.00
2023-05-24T01:45:55.220Z,100.00
2023-05-24T01:48:58.773Z,100.00
2023-05-24T01:51:30.446Z,100.00
2023-05-24T01:53:59.275Z,100.00
2023-05-24T01:56:28.064Z,100.00
2023-05-24T01:58:55.550Z,100.00
2023-05-24T02:01:22.842Z,100.00
2023-05-24T02:03:50.538Z,100.00
2023-05-24T02:06:17.242Z,100.00
2023-05-24T02:08:44.085Z,100.00
2023-05-24T02:11:10.728Z,100.00
2023-05-24T02:13:37.365Z,100.00
2023-05-24T02:16:05.287Z,100.00
2023-05-24T02:18:34.923Z,100.00
2023-05-24T02:21:02.843Z,100.00
2023-05-24T02:23:29.682Z,100.00
2023-05-24T02:25:56.671Z,100.00
2023-05-24T02:28:23.472Z,100.00
2023-05-24T02:30:50.162Z,100.00
2023-05-24T02:33:17.005Z,100.00
2023-05-24T02:35:43.680Z,100.00
2023-05-24T02:38:10.360Z,100.00
2023-05-24T02:40:37.046Z,100.00
2023-05-24T02:43:03.701Z,100.00
2023-05-24T02:45:30.458Z,100.00
2023-05-24T02:47:57.178Z,100.00
2023-05-24T02:50:23.895Z,100.00
2023-05-24T02:52:50.510Z,100.00
2023-05-24T02:55:17.164Z,100.00
2023-05-24T02:57:43.804Z,100.00
2023-05-24T03:00:11.799Z,100.00
2023-05-24T03:02:38.555Z,100.00
2023-05-24T03:05:06.050Z,100.00
2023-05-24T03:07:32.805Z,100.00
2023-05-24T03:09:59.554Z,100.00
2023-05-24T03:12:26.334Z,100.00
2023-05-24T03:14:52.994Z,100.00
2023-05-24T03:17:19.798Z,100.00
2023-05-24T03:19:46.452Z,100.00
2023-05-24T03:22:13.144Z,100.00
2023-05-24T03:24:40.238Z,100.00
2023-05-24T03:27:07.127Z,100.00
2023-05-24T03:29:33.785Z,100.00
2023-05-24T03:32:00.684Z,100.00
2023-05-24T03:34:27.413Z,100.00
2023-05-24T03:36:54.108Z,100.00
2023-05-24T03:39:20.726Z,100.00
2023-05-24T03:41:47.373Z,100.00
2023-05-24T03:44:14.045Z,100.00
2023-05-24T03:46:41.004Z,100.00
2023-05-24T03:49:07.961Z,100.00
2023-05-24T03:51:34.671Z,100.00
2023-05-24T03:54:01.324Z,100.00
2023-05-24T03:56:28.027Z,100.00
2023-05-24T03:58:54.797Z,100.00
2023-05-24T04:01:32.728Z,100.00
2023-05-24T04:04:01.774Z,100.00
2023-05-24T04:06:29.464Z,100.00
2023-05-24T04:08:58.069Z,100.00
2023-05-24T04:11:28.520Z,100.00
2023-05-24T04:14:00.661Z,100.00
2023-05-24T04:16:28.642Z,100.00
2023-05-24T04:18:56.482Z,100.00
2023-05-24T04:21:23.938Z,100.00
2023-05-24T04:23:50.662Z,100.00
2023-05-24T04:26:17.904Z,100.00
2023-05-24T04:28:45.736Z,100.00
2023-05-24T04:31:12.638Z,100.00
2023-05-24T04:33:39.759Z,100.00
2023-05-24T04:36:08.495Z,100.00
2023-05-24T04:38:36.318Z,100.00
2023-05-24T04:41:03.256Z,100.00
2023-05-24T04:43:29.910Z,100.00
2023-05-24T04:45:56.744Z,100.00
2023-05-24T04:48:24.749Z,100.00
2023-05-24T04:50:56.074Z,100.00
2023-05-24T04:53:23.872Z,100.00
2023-05-24T04:55:51.216Z,100.00
2023-05-24T04:58:18.155Z,100.00
2023-05-24T05:00:45.474Z,100.00
2023-05-24T05:03:12.318Z,100.00
2023-05-24T05:05:39.132Z,100.00
2023-05-24T05:08:06.755Z,100.00
2023-05-24T05:10:33.661Z,100.00
2023-05-24T05:13:00.347Z,100.00
2023-05-24T05:15:27.194Z,100.00
2023-05-24T05:17:53.980Z,100.00
2023-05-24T05:20:20.792Z,100.00
2023-05-24T05:22:48.816Z,100.00
2023-05-24T05:25:15.794Z,100.00
2023-05-24T05:27:42.527Z,100.00
2023-05-24T05:30:09.834Z,100.00
2023-05-24T05:32:36.688Z,100.00
2023-05-24T05:35:04.194Z,100.00
2023-05-24T05:37:31.338Z,99.44
2023-05-24T05:39:58.215Z,98.72
2023-05-24T05:42:25.167Z,93.75
2023-05-24T05:44:52.794Z,89.82
2023-05-24T05:47:19.604Z,85.59
2023-05-24T05:49:46.316Z,81.51
2023-05-24T05:52:13.073Z,79.81
2023-05-24T05:54:39.773Z,78.95
2023-05-24T05:57:08.339Z,75.00
2023-05-24T05:59:36.442Z,73.16
2023-05-24T06:02:06.913Z,70.80
2023-05-24T06:04:34.157Z,71.21
2023-05-24T06:07:01.015Z,71.58
2023-05-24T06:09:27.694Z,68.59
2023-05-24T06:11:54.522Z,66.79
2023-05-24T06:14:25.333Z,64.77
2023-05-24T06:16:54.629Z,63.93
2023-05-24T06:19:21.895Z,68.66
2023-05-24T06:21:49.661Z,65.06
2023-05-24T06:24:21.485Z,63.65
2023-05-24T06:26:51.355Z,61.92
2023-05-24T06:29:20.676Z,60.31
2023-05-24T06:31:48.347Z,62.47
2023-05-24T06:34:18.990Z,60.27
2023-05-24T06:36:47.452Z,58.45
2023-05-24T06:39:15.150Z,58.55
2023-05-24T06:41:43.324Z,62.27
2023-05-24T06:44:10.498Z,60.14
2023-05-24T06:46:37.071Z,60.76
2023-05-24T06:49:03.920Z,58.79
2023-05-24T06:51:31.076Z,57.41
2023-05-24T06:53:57.997Z,58.77
2023-05-24T06:56:25.478Z,59.90
2023-05-24T06:58:52.174Z,62.69
2023-05-24T07:01:18.917Z,62.57
2023-05-24T07:03:46.123Z,57.81
2023-05-24T07:06:14.238Z,51.86
2023-05-24T07:08:42.035Z,51.24
2023-05-24T07:11:09.961Z,52.35
2023-05-24T07:13:36.683Z,50.79
2023-05-24T07:16:03.518Z,51.09
2023-05-24T07:18:30.747Z,51.70
2023-05-24T07:20:57.349Z,52.69
2023-05-24T07:23:24.025Z,52.56
2023-05-24T07:25:50.949Z,54.81
2023-05-24T07:28:20.274Z,56.05
2023-05-24T07:30:47.202Z,52.84
2023-05-24T07:33:14.183Z,51.63
2023-05-24T07:35:41.939Z,52.93
2023-05-24T07:38:08.975Z,53.22
2023-05-24T07:40:35.752Z,54.12
2023-05-24T07:43:04.071Z,55.88
2023-05-24T07:45:31.862Z,55.88
2023-05-24T07:47:58.835Z,55.89
2023-05-24T07:50:26.639Z,55.61
2023-05-24T07:52:53.497Z,54.87
2023-05-24T07:55:20.266Z,57.92
2023-05-24T07:57:47.599Z,57.23
2023-05-24T08:00:15.173Z,57.13
2023-05-24T08:02:46.762Z,57.46
2023-05-24T08:05:14.276Z,55.12
2023-05-24T08:07:42.067Z,55.41
2023-05-24T08:10:15.443Z,54.35
2023-05-24T08:12:42.961Z,54.39
2023-05-24T08:15:10.367Z,54.67
2023-05-24T08:17:39.500Z,54.48
2023-05-24T08:20:08.655Z,53.84
2023-05-24T08:22:37.011Z,56.21
2023-05-24T08:25:03.857Z,57.07
2023-05-24T08:27:30.733Z,52.12
2023-05-24T08:29:57.396Z,55.67
2023-05-24T08:32:24.105Z,54.38
2023-05-24T08:34:51.153Z,55.17
2023-05-24T08:37:20.657Z,53.66
2023-05-24T08:39:47.388Z,52.39
2023-05-24T08:42:15.602Z,54.07
2023-05-24T08:45:09.254Z,52.83
2023-05-24T08:47:37.275Z,52.22
2023-05-24T08:50:05.451Z,55.26
2023-05-24T08:52:32.593Z,52.68
2023-05-24T08:54:59.919Z,53.13
2023-05-24T08:57:27.650Z,54.16
2023-05-24T08:59:57.371Z,52.84
2023-05-24T09:02:24.558Z,53.14
2023-05-24T09:04:52.879Z,50.84
2023-05-24T09:07:23.702Z,51.25
2023-05-24T09:09:57.543Z,51.75
2023-05-24T09:12:36.639Z,54.25
2023-05-24T09:15:06.335Z,50.62
2023-05-24T09:17:34.489Z,51.17
2023-05-24T09:20:01.530Z,57.57
2023-05-24T09:22:30.823Z,49.67
2023-05-24T09:25:00.677Z,48.60
2023-05-24T09:27:27.896Z,57.52
2023-05-24T09:29:55.810Z,49.67
2023-05-24T09:32:26.165Z,48.75
2023-05-24T09:34:54.227Z,50.92
2023-05-24T09:37:28.151Z,47.84
2023-05-24T09:39:58.478Z,51.01
2023-05-24T09:42:28.405Z,49.19
2023-05-24T09:45:06.957Z,48.67
2023-05-24T09:47:35.615Z,47.29
2023-05-24T09:50:04.105Z,49.50
2023-05-24T09:52:32.109Z,46.34
2023-05-24T09:55:00.234Z,51.95
2023-05-24T09:57:28.320Z,49.53
2023-05-24T09:59:55.157Z,47.40
2023-05-24T10:02:23.966Z,46.56
2023-05-24T10:05:00.360Z,45.31
2023-05-24T10:07:27.468Z,50.06
2023-05-24T10:09:54.278Z,45.18
2023-05-24T10:12:23.322Z,51.18
2023-05-24T10:14:52.104Z,45.74
2023-05-24T10:17:18.778Z,47.45
2023-05-24T10:19:46.356Z,43.41
2023-05-24T10:22:16.002Z,42.84
2023-05-24T10:24:47.760Z,44.56
2023-05-24T10:27:18.504Z,44.99
2023-05-24T10:30:11.370Z,42.25
2023-05-24T10:32:42.322Z,47.44
2023-05-24T10:35:12.638Z,41.52
2023-05-24T10:37:39.574Z,44.63
2023-05-24T10:40:10.057Z,42.34
2023-05-24T10:42:39.101Z,42.03
2023-05-24T10:45:27.565Z,42.40
2023-05-24T10:47:54.743Z,40.41
2023-05-24T10:50:22.451Z,46.42
2023-05-24T10:52:49.507Z,46.65
2023-05-24T10:55:19.229Z,44.47
2023-05-24T10:57:45.961Z,43.33
2023-05-24T11:00:34.778Z,46.13
2023-05-24T11:03:06.835Z,43.68
2023-05-24T11:05:47.032Z,44.45
2023-05-24T11:08:13.773Z,39.36
2023-05-24T11:10:44.419Z,38.04
2023-05-24T11:13:11.801Z,38.00
2023-05-24T11:15:38.350Z,42.02
2023-05-24T11:18:13.851Z,42.63
2023-05-24T11:20:48.338Z,42.66
2023-05-24T11:23:16.427Z,46.63
2023-05-24T11:25:43.323Z,43.83
2023-05-24T11:28:12.475Z,42.41
2023-05-24T11:30:44.025Z,43.71
2023-05-24T11:33:18.930Z,42.15
2023-05-24T11:35:52.516Z,36.62
2023-05-24T11:38:24.193Z,42.33
2023-05-24T11:40:51.654Z,41.93
2023-05-24T11:43:22.150Z,41.80
2023-05-24T11:45:50.222Z,35.69
2023-05-24T11:48:18.598Z,35.78
2023-05-24T11:50:50.537Z,37.56
2023-05-24T11:53:19.897Z,35.22
2023-05-24T11:55:46.674Z,36.74
2023-05-24T11:58:49.647Z,38.39
2023-05-24T12:01:27.591Z,35.79
2023-05-24T12:03:55.248Z,34.41
2023-05-24T12:06:22.954Z,34.93
2023-05-24T12:08:50.277Z,36.90
2023-05-24T12:11:17.377Z,37.30
2023-05-24T12:13:44.392Z,34.26
2023-05-24T12:16:13.255Z,35.76
2023-05-24T12:18:45.777Z,36.43
2023-05-24T12:21:20.537Z,35.61
2023-05-24T12:23:48.316Z,35.91
2023-05-24T12:26:20.534Z,38.49
2023-05-24T12:28:52.845Z,38.10
2023-05-24T12:31:19.813Z,38.59
2023-05-24T12:33:47.444Z,39.47
2023-05-24T12:36:14.262Z,35.00
2023-05-24T12:38:40.896Z,36.19
2023-05-24T12:41:13.431Z,34.21
2023-05-24T12:43:44.514Z,34.06
2023-05-24T12:46:11.468Z,33.51
2023-05-24T12:48:38.199Z,34.27
2023-05-24T12:51:04.919Z,36.89
2023-05-24T12:53:31.601Z,36.54
2023-05-24T12:56:00.577Z,33.75
2023-05-24T12:58:27.498Z,35.17
2023-05-24T13:00:54.483Z,34.42
2023-05-24T13:03:21.483Z,37.09
2023-05-24T13:05:48.241Z,40.53
2023-05-24T13:08:14.991Z,35.53
2023-05-24T13:10:41.959Z,36.80
2023-05-24T13:13:08.906Z,36.16
2023-05-24T13:15:36.322Z,33.90
2023-05-24T13:18:03.074Z,32.90
2023-05-24T13:20:29.970Z,32.85
2023-05-24T13:22:56.889Z,38.73
2023-05-24T13:25:23.818Z,36.76
2023-05-24T13:27:50.642Z,38.70
2023-05-24T13:30:17.569Z,36.20
2023-05-24T13:32:44.396Z,35.02
2023-05-24T13:35:11.424Z,36.21
2023-05-24T13:37:38.216Z,40.98
2023-05-24T13:40:06.201Z,35.72
2023-05-24T13:42:33.115Z,35.24
2023-05-24T13:44:59.958Z,33.99
2023-05-24T13:47:35.839Z,34.29
2023-05-24T13:50:06.181Z,37.63
2023-05-24T13:52:32.979Z,34.97
2023-05-24T13:54:59.719Z,37.88
2023-05-24T13:57:33.696Z,38.51
2023-05-24T14:00:10.733Z,39.16
2023-05-24T14:02:38.792Z,35.24
2023-05-24T14:05:25.006Z,35.46
2023-05-24T14:07:52.274Z,39.02
2023-05-24T14:10:21.262Z,39.67
2023-05-24T14:12:59.591Z,39.76
2023-05-24T14:15:30.779Z,39.72
2023-05-24T14:17:58.916Z,40.35
2023-05-24T14:20:25.695Z,43.29
2023-05-24T14:22:52.675Z,42.43
2023-05-24T14:25:19.435Z,44.49
2023-05-24T14:27:46.424Z,45.46
2023-05-24T14:30:13.324Z,42.32
2023-05-24T14:32:40.125Z,43.56
2023-05-24T14:35:07.039Z,45.11
2023-05-24T14:37:33.730Z,44.15
2023-05-24T14:40:00.847Z,41.99
2023-05-24T14:42:27.416Z,42.52
2023-05-24T14:44:54.064Z,45.02
2023-05-24T14:47:20.994Z,42.63
2023-05-24T14:49:47.715Z,44.33
2023-05-24T14:52:14.414Z,44.30
2023-05-24T14:54:41.133Z,43.65
2023-05-24T14:57:08.209Z,41.32
2023-05-24T14:59:35.025Z,44.05
2023-05-24T15:02:01.804Z,46.13
2023-05-24T15:04:28.465Z,44.97
2023-05-24T15:06:55.678Z,41.72
2023-05-24T15:09:22.342Z,46.49
2023-05-24T15:11:48.968Z,44.27
2023-05-24T15:14:15.736Z,44.86
2023-05-24T15:16:42.475Z,47.21
2023-05-24T15:19:10.091Z,48.33
2023-05-24T15:21:39.708Z,43.89
2023-05-24T15:24:06.763Z,45.88
2023-05-24T15:26:34.252Z,44.74
2023-05-24T15:29:03.922Z,43.64
2023-05-24T15:31:30.610Z,42.70
2023-05-24T15:33:57.560Z,46.42
2023-05-24T15:36:24.263Z,43.41
2023-05-24T15:38:50.876Z,45.21
2023-05-24T15:41:17.685Z,44.87
2023-05-24T15:43:44.667Z,43.89
2023-05-24T15:46:11.386Z,44.62
2023-05-24T15:48:39.160Z,49.52
2023-05-24T15:53:37.364Z,52.65
2023-05-24T15:56:04.171Z,53.68
2023-05-24T15:58:31.046Z,52.89
2023-05-24T16:00:57.803Z,51.82
2023-05-24T16:03:24.674Z,53.17
2023-05-24T16:05:51.662Z,54.55
2023-05-24T16:08:18.620Z,55.66
2023-05-24T16:10:45.829Z,58.02
2023-05-24T16:13:12.578Z,59.71
2023-05-24T16:15:41.855Z,58.02
2023-05-24T16:18:08.790Z,56.91
2023-05-24T16:20:35.520Z,55.88
2023-05-24T16:23:03.740Z,58.37
2023-05-24T16:25:30.442Z,61.82
2023-05-24T16:27:57.190Z,63.30
2023-05-24T16:30:24.097Z,64.79
2023-05-24T16:32:50.992Z,64.27
2023-05-24T16:35:17.674Z,61.45
2023-05-24T16:37:44.312Z,61.81
2023-05-24T16:40:11.894Z,64.17
2023-05-24T16:42:38.609Z,67.95
2023-05-24T16:45:06.095Z,68.24
2023-05-24T16:47:33.030Z,70.09
2023-05-24T16:49:59.852Z,70.69
2023-05-24T16:52:26.550Z,69.07
2023-05-24T16:54:53.195Z,68.01
2023-05-24T16:57:19.820Z,69.97
2023-05-24T16:59:50.609Z,67.58
2023-05-24T17:02:17.564Z,69.49
2023-05-24T17:04:44.487Z,71.05
2023-05-24T17:07:11.132Z,72.48
2023-05-24T17:09:38.140Z,78.40
2023-05-24T17:12:04.995Z,77.13
2023-05-24T17:14:31.808Z,71.97
2023-05-24T17:16:58.515Z,71.60
2023-05-24T17:19:25.309Z,75.20
2023-05-24T17:21:52.129Z,73.05
2023-05-24T17:24:18.774Z,74.28
2023-05-24T17:26:45.601Z,71.15
2023-05-24T17:29:12.592Z,69.34
2023-05-24T17:31:39.746Z,68.24
2023-05-24T17:34:06.429Z,69.61
2023-05-24T17:36:33.790Z,69.81
2023-05-24T17:39:00.493Z,67.29
2023-05-24T17:41:27.092Z,70.68
2023-05-24T17:43:53.799Z,70.73
2023-05-24T17:46:20.696Z,71.18
2023-05-24T17:48:48.254Z,71.82
2023-05-24T17:51:15.236Z,71.25
2023-05-24T17:53:43.593Z,70.01
2023-05-24T17:56:10.383Z,68.56
2023-05-24T17:58:37.683Z,63.13
2023-05-24T18:01:05.731Z,59.96
2023-05-24T18:03:37.408Z,62.28
2023-05-24T18:06:06.774Z,63.56
2023-05-24T18:08:35.318Z,63.12
2023-05-24T18:11:07.944Z,68.99
2023-05-24T18:13:35.248Z,68.76
2023-05-24T18:16:02.373Z,70.10
2023-05-24T18:18:29.806Z,68.85
2023-05-24T18:20:56.444Z,67.95
2023-05-24T18:23:23.066Z,67.06
2023-05-24T18:25:49.814Z,66.67
2023-05-24T18:28:16.508Z,66.40
2023-05-24T18:30:43.174Z,66.94
2023-05-24T18:33:10.027Z,70.99
2023-05-24T18:35:36.866Z,72.13
2023-05-24T18:38:04.480Z,70.92
2023-05-24T18:40:31.184Z,75.82
2023-05-24T18:42:57.836Z,80.40
2023-05-24T18:45:24.451Z,79.91
2023-05-24T18:47:51.166Z,80.21
2023-05-24T18:50:23.281Z,79.60
2023-05-24T18:52:50.438Z,77.86
2023-05-24T18:55:17.231Z,78.75
2023-05-24T18:57:43.964Z,80.02
2023-05-24T19:00:11.828Z,80.80
2023-05-24T19:02:39.702Z,79.07
2023-05-24T19:05:07.685Z,79.86
2023-05-24T19:07:35.569Z,78.85
2023-05-24T19:10:02.647Z,78.21
2023-05-24T19:12:30.207Z,77.02
2023-05-24T19:14:57.251Z,77.51
2023-05-24T19:17:25.083Z,80.38
2023-05-24T19:19:52.296Z,82.21
2023-05-24T19:22:19.205Z,80.29
2023-05-24T19:24:46.084Z,77.20
2023-05-24T19:27:12.955Z,76.42
2023-05-24T19:29:40.161Z,77.56
2023-05-24T19:32:07.333Z,82.83
2023-05-24T19:34:35.425Z,84.13
2023-05-24T19:37:03.364Z,80.64
2023-05-24T19:39:30.174Z,80.73
2023-05-24T19:41:56.857Z,80.00
2023-05-24T19:44:23.534Z,79.56
2023-05-24T19:46:50.293Z,79.08
2023-05-24T19:49:16.949Z,79.30
2023-05-24T19:51:43.620Z,79.72
2023-05-24T19:54:11.217Z,81.09
2023-05-24T19:56:37.945Z,83.00
2023-05-24T19:59:04.634Z,82.49
2023-05-24T20:01:31.651Z,82.04
2023-05-24T20:03:58.574Z,81.55
2023-05-24T20:06:26.434Z,81.76
2023-05-24T20:08:53.414Z,82.81
2023-05-24T20:11:20.371Z,84.45
2023-05-24T20:13:47.076Z,83.53
2023-05-24T20:16:13.850Z,82.13
2023-05-24T20:18:40.895Z,83.82
2023-05-24T20:21:07.597Z,83.85
2023-05-24T20:23:34.239Z,85.92
2023-05-24T20:26:01.006Z,89.55
2023-05-24T20:28:31.609Z,90.51
2023-05-24T20:30:59.285Z,86.95
2023-05-24T20:33:25.821Z,84.80
2023-05-24T20:35:54.103Z,83.62
2023-05-24T20:38:20.827Z,84.67
2023-05-24T20:40:47.559Z,85.40
2023-05-24T20:43:14.224Z,87.45
2023-05-24T20:45:41.019Z,88.04
2023-05-24T20:48:07.852Z,89.23
2023-05-24T20:50:34.541Z,89.89
2023-05-24T20:53:01.405Z,89.99
2023-05-24T20:55:28.068Z,89.62
2023-05-24T20:57:54.758Z,90.90
2023-05-24T21:00:21.713Z,91.59
2023-05-24T21:02:48.421Z,90.26
2023-05-24T21:05:15.466Z,89.87
2023-05-24T21:07:42.160Z,87.30
2023-05-24T21:10:09.502Z,87.29
2023-05-24T21:12:35.988Z,91.84
2023-05-24T21:15:02.627Z,92.99
2023-05-24T21:17:29.360Z,93.67
2023-05-24T21:19:56.278Z,94.39
2023-05-24T21:22:23.024Z,94.12
2023-05-24T21:24:50.069Z,93.07
2023-05-24T21:27:18.800Z,93.97
2023-05-24T21:29:45.686Z,94.03
2023-05-24T21:32:12.336Z,94.17
2023-05-24T21:34:39.033Z,92.79
2023-05-24T21:37:05.875Z,94.20
2023-05-24T21:39:33.169Z,95.51
2023-05-24T21:41:59.889Z,97.11
2023-05-24T21:44:26.536Z,97.09
2023-05-24T21:46:53.243Z,96.49
2023-05-24T21:49:21.462Z,96.49
2023-05-24T21:51:48.221Z,96.69
2023-05-24T21:54:15.158Z,97.59
2023-05-24T21:56:41.853Z,97.04
2023-05-24T21:59:08.539Z,97.35
2023-05-24T22:01:35.304Z,97.93
2023-05-24T22:04:01.994Z,98.50
2023-05-24T22:06:28.736Z,97.75
2023-05-24T22:08:57.901Z,97.21
2023-05-24T22:11:24.552Z,97.25
2023-05-24T22:13:51.575Z,97.12
2023-05-24T22:16:18.325Z,96.77
2023-05-24T22:18:45.095Z,95.48
2023-05-24T22:21:14.481Z,94.95
2023-05-24T22:23:41.382Z,95.17
2023-05-24T22:26:07.997Z,97.22
2023-05-24T22:28:54.950Z,97.02
2023-05-24T22:31:21.773Z,97.45
2023-05-24T22:33:49.533Z,97.82
2023-05-24T22:36:16.153Z,98.55
2023-05-24T22:38:42.911Z,99.00
2023-05-24T22:41:09.774Z,99.63
2023-05-24T22:43:36.536Z,99.36
2023-05-24T22:46:03.233Z,98.87
2023-05-24T22:48:34.028Z,98.41
2023-05-24T22:51:00.994Z,98.11
2023-05-24T22:53:28.487Z,98.84
2023-05-24T22:55:55.175Z,100.00
2023-05-24T22:58:24.136Z,99.58
2023-05-24T23:00:51.809Z,99.94
2023-05-24T23:03:18.505Z,98.41
2023-05-24T23:05:45.846Z,99.42
2023-05-24T23:08:15.485Z,100.00
2023-05-24T23:10:45.762Z,99.01
2023-05-24T23:13:13.749Z,100.00
2023-05-24T23:15:41.096Z,100.00
2023-05-24T23:18:08.105Z,100.00
2023-05-24T23:20:34.914Z,100.00
2023-05-24T23:23:06.018Z,100.00
2023-05-24T23:25:33.570Z,100.00
2023-05-24T23:28:01.325Z,100.00
2023-05-24T23:30:28.538Z,100.00
2023-05-24T23:32:55.290Z,100.00
2023-05-24T23:35:22.174Z,100.00
2023-05-24T23:37:48.848Z,100.00
2023-05-24T23:40:15.532Z,100.00
2023-05-24T23:42:42.329Z,100.00
2023-05-24T23:45:09.221Z,100.00
2023-05-24T23:47:35.871Z,100.00
2023-05-24T23:50:03.289Z,100.00
2023-05-24T23:52:29.901Z,100.00
2023-05-24T23:54:56.876Z,100.00
2023-05-24T23:57:25.020Z,100.00
2023-05-24T23:59:51.797Z,100.00
